Time;durP1;ratioP1;P1;durP2;ratioP2;P2;SDS_P1;SDS_P2;PMS_P1;PMS_P2;Temp;Humidity;BMP_temperature;BMP_pressure;BME280_temperature;BME280_humidity;BME280_pressure;Samples;Min_cycle;Max_cycle;Signal;HPM_P1;HPM_P2
2023/04/24 00:02:22;;;;;;;7.00;5.10;;;;;;;;;;765322;181;937742;-61
2023/04/24 00:04:48;;;;;;;5.73;4.97;;;;;;;;;;766253;182;917854;-61
2023/04/24 00:07:14;;;;;;;8.03;5.23;;;;;;;;;;766080;182;914267;-61
2023/04/24 00:09:39;;;;;;;6.55;5.03;;;;;;;;;;768976;182;918550;-61
2023/04/24 00:12:05;;;;;;;7.00;4.83;;;;;;;;;;762951;183;905142;-61
2023/04/24 00:14:31;;;;;;;5.20;4.43;;;;;;;;;;761668;183;918755;-61
2023/04/24 00:16:57;;;;;;;7.40;5.00;;;;;;;;;;767576;182;919693;-62
2023/04/24 00:19:23;;;;;;;5.50;4.70;;;;;;;;;;756068;183;925426;-61
2023/04/24 00:21:49;;;;;;;8.43;5.27;;;;;;;;;;752690;186;919543;-61
2023/04/24 00:24:15;;;;;;;7.30;5.77;;;;;;;;;;769114;181;919332;-61
2023/04/24 00:26:41;;;;;;;6.20;4.50;;;;;;;;;;755099;183;919330;-61
2023/04/24 00:29:07;;;;;;;8.00;4.97;;;;;;;;;;754335;183;919676;-61
2023/04/24 00:31:34;;;;;;;8.37;6.43;;;;;;;;;;763378;184;920934;-62
2023/04/24 00:33:58;;;;;;;5.77;5.10;;;;;;;;;;768177;179;852139;-61
2023/04/24 00:36:24;;;;;;;8.13;4.40;;;;;;;;;;749577;185;918489;-61
2023/04/24 00:38:50;;;;;;;6.53;5.50;;;;;;;;;;757460;184;914189;-61
2023/04/24 00:41:16;;;;;;;7.80;4.30;;;;;;;;;;764446;183;919203;-61
2023/04/24 00:43:42;;;;;;;7.80;5.00;;;;;;;;;;749126;184;919900;-61
2023/04/24 00:46:08;;;;;;;7.07;4.40;;;;;;;;;;758807;179;922395;-61
2023/04/24 00:48:33;;;;;;;9.17;5.20;;;;;;;;;;762426;183;919267;-61
2023/04/24 00:50:59;;;;;;;6.57;4.70;;;;;;;;;;757136;183;920277;-61
2023/04/24 00:53:25;;;;;;;7.23;5.70;;;;;;;;;;757153;183;918495;-61
2023/04/24 00:55:51;;;;;;;8.60;6.40;;;;;;;;;;752227;184;926674;-61
2023/04/24 00:58:17;;;;;;;6.00;4.20;;;;;;;;;;764380;179;919342;-61
2023/04/24 01:00:43;;;;;;;5.60;4.67;;;;;;;;;;763569;182;920123;-61
2023/04/24 01:03:08;;;;;;;6.87;5.20;;;;;;;;;;764326;182;816547;-61
2023/04/24 01:05:34;;;;;;;7.72;5.43;;;;;;;;;;770358;182;843680;-61
2023/04/24 01:08:00;;;;;;;5.83;4.83;;;;;;;;;;761791;183;915319;-61
2023/04/24 01:10:26;;;;;;;6.90;4.90;;;;;;;;;;767492;181;985363;-62
2023/04/24 01:12:52;;;;;;;9.10;5.10;;;;;;;;;;768468;181;910520;-61
2023/04/24 01:15:18;;;;;;;8.90;5.63;;;;;;;;;;765423;183;875017;-61
2023/04/24 01:17:44;;;;;;;5.83;4.60;;;;;;;;;;766760;181;920577;-61
2023/04/24 01:20:10;;;;;;;7.97;4.65;;;;;;;;;;770949;183;919285;-62
2023/04/24 01:22:35;;;;;;;8.93;5.57;;;;;;;;;;766671;181;913060;-62
2023/04/24 01:25:01;;;;;;;6.63;5.33;;;;;;;;;;765025;181;916615;-61
2023/04/24 01:27:27;;;;;;;5.87;5.07;;;;;;;;;;767736;182;921244;-61
2023/04/24 01:29:53;;;;;;;6.70;4.77;;;;;;;;;;767172;180;919345;-61
2023/04/24 01:32:19;;;;;;;7.13;4.27;;;;;;;;;;750016;185;919710;-61
2023/04/24 01:34:45;;;;;;;8.80;4.93;;;;;;;;;;760998;182;918795;-62
2023/04/24 01:37:10;;;;;;;9.43;5.20;;;;;;;;;;769576;181;922895;-61
2023/04/24 01:39:36;;;;;;;6.80;5.10;;;;;;;;;;769233;180;910856;-61
2023/04/24 01:42:02;;;;;;;7.47;4.72;;;;;;;;;;768982;183;922025;-61
2023/04/24 01:44:28;;;;;;;7.80;5.03;;;;;;;;;;764451;183;926094;-61
2023/04/24 01:46:54;;;;;;;6.80;4.87;;;;;;;;;;754382;182;1017536;-61
2023/04/24 01:49:20;;;;;;;4.90;4.23;;;;;;;;;;750535;183;919640;-63
2023/04/24 01:51:46;;;;;;;6.10;4.80;;;;;;;;;;755258;182;921245;-61
2023/04/24 01:54:11;;;;;;;7.90;4.87;;;;;;;;;;768746;184;921931;-62
2023/04/24 01:56:37;;;;;;;5.40;4.10;;;;;;;;;;763318;182;916890;-63
2023/04/24 01:59:03;;;;;;;11.87;6.93;;;;;;;;;;762803;181;915786;-61
2023/04/24 02:01:29;;;;;;;7.30;5.50;;;;;;;;;;772354;182;918944;-62
2023/04/24 02:03:55;;;;;;;8.23;5.50;;;;;;;;;;768558;181;812601;-61
2023/04/24 02:06:21;;;;;;;7.80;5.60;;;;;;;;;;766542;182;918445;-61
2023/04/24 02:08:46;;;;;;;7.80;4.80;;;;;;;;;;771557;181;919053;-61
2023/04/24 02:11:12;;;;;;;6.77;4.90;;;;;;;;;;766481;181;920551;-61
2023/04/24 02:13:38;;;;;;;7.07;4.87;;;;;;;;;;765980;182;921486;-61
2023/04/24 02:16:04;;;;;;;10.50;4.77;;;;;;;;;;763977;182;919475;-62
2023/04/24 02:18:30;;;;;;;6.80;5.07;;;;;;;;;;763582;181;939444;-61
2023/04/24 02:20:56;;;;;;;10.40;5.22;;;;;;;;;;763490;182;919851;-61
2023/04/24 02:23:22;;;;;;;5.67;4.47;;;;;;;;;;763489;182;916969;-61
2023/04/24 02:25:48;;;;;;;8.00;5.10;;;;;;;;;;764972;182;915931;-61
2023/04/24 02:28:13;;;;;;;8.45;5.72;;;;;;;;;;754121;182;920710;-61
2023/04/24 02:30:39;;;;;;;7.40;4.67;;;;;;;;;;766021;181;919913;-61
2023/04/24 02:33:05;;;;;;;8.47;5.73;;;;;;;;;;771628;183;920634;-61
2023/04/24 02:35:31;;;;;;;6.40;4.50;;;;;;;;;;756364;183;914810;-61
2023/04/24 02:37:57;;;;;;;7.37;4.77;;;;;;;;;;753193;186;919498;-62
2023/04/24 02:40:23;;;;;;;6.90;4.80;;;;;;;;;;760200;184;919687;-61
2023/04/24 02:42:49;;;;;;;6.73;5.20;;;;;;;;;;761372;184;919284;-61
2023/04/24 02:45:15;;;;;;;9.23;4.77;;;;;;;;;;753538;184;918738;-61
2023/04/24 02:47:41;;;;;;;7.00;4.80;;;;;;;;;;752340;184;919911;-62
2023/04/24 02:50:07;;;;;;;8.30;5.27;;;;;;;;;;760517;183;919092;-61
2023/04/24 02:52:33;;;;;;;8.33;5.03;;;;;;;;;;751921;184;919635;-61
2023/04/24 02:54:59;;;;;;;6.83;5.47;;;;;;;;;;761428;182;921069;-61
2023/04/24 02:57:25;;;;;;;7.62;5.53;;;;;;;;;;759926;183;924743;-61
2023/04/24 02:59:51;;;;;;;10.83;5.30;;;;;;;;;;762528;182;919584;-61
2023/04/24 03:02:16;;;;;;;12.00;5.57;;;;;;;;;;759517;182;799018;-61
2023/04/24 03:04:42;;;;;;;7.00;5.30;;;;;;;;;;767094;181;918422;-61
2023/04/24 03:07:08;;;;;;;9.03;5.67;;;;;;;;;;765344;182;913291;-61
2023/04/24 03:09:34;;;;;;;6.73;4.90;;;;;;;;;;768706;181;918818;-61
2023/04/24 03:12:00;;;;;;;9.43;5.60;;;;;;;;;;770078;181;914675;-61
2023/04/24 03:14:26;;;;;;;7.53;6.20;;;;;;;;;;776361;182;816958;-61
2023/04/24 03:16:52;;;;;;;7.60;5.27;;;;;;;;;;768553;182;919819;-61
2023/04/24 03:19:18;;;;;;;9.03;5.90;;;;;;;;;;755502;186;811394;-61
2023/04/24 03:21:44;;;;;;;8.33;5.37;;;;;;;;;;773587;182;923084;-61
2023/04/24 03:24:10;;;;;;;8.83;4.70;;;;;;;;;;770975;181;870002;-61
2023/04/24 03:26:36;;;;;;;7.80;5.90;;;;;;;;;;766697;182;919302;-60
2023/04/24 03:29:02;;;;;;;7.00;5.10;;;;;;;;;;769644;182;919016;-61
2023/04/24 03:31:27;;;;;;;12.47;5.70;;;;;;;;;;765011;181;921221;-61
2023/04/24 03:33:53;;;;;;;8.80;5.90;;;;;;;;;;763175;182;943756;-61
2023/04/24 03:36:20;;;;;;;7.40;4.93;;;;;;;;;;756613;182;918561;-61
2023/04/24 03:38:45;;;;;;;7.33;5.50;;;;;;;;;;754082;186;818905;-61
2023/04/24 03:41:11;;;;;;;8.60;5.80;;;;;;;;;;765295;182;919640;-61
2023/04/24 03:43:37;;;;;;;10.30;5.80;;;;;;;;;;763509;182;922207;-61
2023/04/24 03:46:03;;;;;;;7.93;5.83;;;;;;;;;;758399;183;918763;-61
2023/04/24 03:48:28;;;;;;;7.00;5.90;;;;;;;;;;753587;183;920355;-61
2023/04/24 03:50:54;;;;;;;8.30;6.30;;;;;;;;;;759809;182;920930;-61
2023/04/24 03:53:20;;;;;;;6.77;5.10;;;;;;;;;;757785;183;919401;-61
2023/04/24 03:55:46;;;;;;;15.33;6.50;;;;;;;;;;760273;181;919291;-61
2023/04/24 03:58:14;;;;;;;7.30;5.57;;;;;;;;;;759043;182;920945;-61
2023/04/24 04:00:40;;;;;;;10.87;6.57;;;;;;;;;;757833;182;921818;-61
2023/04/24 04:03:03;;;;;;;11.98;7.25;;;;;;;;;;760888;184;919392;-61
2023/04/24 04:05:29;;;;;;;9.50;6.60;;;;;;;;;;755639;182;919046;-61
2023/04/24 04:07:55;;;;;;;8.00;6.37;;;;;;;;;;751703;185;919697;-61
2023/04/24 04:10:21;;;;;;;14.67;7.10;;;;;;;;;;757449;185;787988;-61
2023/04/24 04:12:47;;;;;;;7.57;5.20;;;;;;;;;;751325;182;919415;-61
2023/04/24 04:15:13;;;;;;;7.40;6.10;;;;;;;;;;756048;184;921031;-61
2023/04/24 04:17:39;;;;;;;7.73;5.47;;;;;;;;;;770149;181;815664;-61
2023/04/24 04:20:09;;;;;;;6.57;5.10;;;;;;;;;;751436;184;919020;-61
2023/04/24 04:22:31;;;;;;;8.40;4.70;;;;;;;;;;759245;182;1019850;-59
2023/04/24 04:24:57;;;;;;;8.45;6.20;;;;;;;;;;761156;182;919623;-59
2023/04/24 04:27:22;;;;;;;9.23;5.80;;;;;;;;;;761068;183;727249;-60
2023/04/24 04:29:48;;;;;;;12.37;6.90;;;;;;;;;;761872;182;915439;-60
2023/04/24 04:32:15;;;;;;;13.33;6.53;;;;;;;;;;762299;182;917213;-60
2023/04/24 04:34:40;;;;;;;9.13;8.07;;;;;;;;;;763797;182;897701;-59
2023/04/24 04:37:06;;;;;;;8.87;6.67;;;;;;;;;;758425;181;910543;-60
2023/04/24 04:39:32;;;;;;;9.23;7.10;;;;;;;;;;766620;182;855146;-60
2023/04/24 04:41:58;;;;;;;12.50;9.13;;;;;;;;;;766023;182;916645;-60
2023/04/24 04:44:24;;;;;;;7.67;6.33;;;;;;;;;;753465;179;919625;-60
2023/04/24 04:46:49;;;;;;;9.13;7.57;;;;;;;;;;755230;182;1019512;-60
2023/04/24 04:49:16;;;;;;;7.93;7.10;;;;;;;;;;771437;181;981094;-60
2023/04/24 04:51:41;;;;;;;9.10;8.07;;;;;;;;;;770699;181;781351;-60
2023/04/24 04:54:07;;;;;;;12.13;8.10;;;;;;;;;;762670;181;921453;-59
2023/04/24 04:56:33;;;;;;;14.57;10.07;;;;;;;;;;760151;182;627629;-59
2023/04/24 04:58:59;;;;;;;20.50;9.57;;;;;;;;;;762167;182;618659;-59
2023/04/24 05:01:25;;;;;;;11.23;8.47;;;;;;;;;;762489;182;918905;-59
2023/04/24 05:03:50;;;;;;;12.57;8.83;;;;;;;;;;762985;182;817310;-60
2023/04/24 05:06:16;;;;;;;12.07;9.80;;;;;;;;;;770737;182;827390;-60
2023/04/24 05:08:42;;;;;;;14.03;9.47;;;;;;;;;;763380;182;816386;-60
2023/04/24 05:11:08;;;;;;;16.10;11.87;;;;;;;;;;758779;181;915731;-59
2023/04/24 05:13:34;;;;;;;12.90;9.20;;;;;;;;;;768809;181;925842;-60
2023/04/24 05:16:00;;;;;;;13.77;10.00;;;;;;;;;;762154;182;870069;-59
2023/04/24 05:18:26;;;;;;;16.93;9.63;;;;;;;;;;764560;181;918601;-59
2023/04/24 05:20:51;;;;;;;12.77;10.70;;;;;;;;;;761880;182;915558;-60
2023/04/24 05:23:17;;;;;;;15.13;10.20;;;;;;;;;;762549;183;915686;-60
2023/04/24 05:25:43;;;;;;;8.30;7.10;;;;;;;;;;761725;180;917280;-59
2023/04/24 05:28:09;;;;;;;9.80;7.53;;;;;;;;;;768887;182;917513;-59
2023/04/24 05:30:35;;;;;;;11.63;7.60;;;;;;;;;;770951;182;914600;-59
2023/04/24 05:33:01;;;;;;;10.13;7.33;;;;;;;;;;765966;182;940387;-59
2023/04/24 05:35:26;;;;;;;47.07;33.00;;;;;;;;;;767432;181;921279;-59
2023/04/24 05:37:52;;;;;;;14.10;11.77;;;;;;;;;;770335;182;913420;-59
2023/04/24 05:40:18;;;;;;;13.73;8.30;;;;;;;;;;758889;182;919534;-59
2023/04/24 05:42:44;;;;;;;12.67;8.57;;;;;;;;;;763704;181;917546;-60
2023/04/24 05:45:16;;;;;;;14.77;10.07;;;;;;;;;;756933;182;918984;-59
2023/04/24 05:47:36;;;;;;;12.13;10.20;;;;;;;;;;758487;184;817109;-59
2023/04/24 05:50:02;;;;;;;10.20;8.57;;;;;;;;;;753111;182;916221;-59
2023/04/24 05:52:28;;;;;;;15.40;11.20;;;;;;;;;;762137;182;921398;-59
2023/04/24 05:54:53;;;;;;;18.97;11.30;;;;;;;;;;767365;182;919200;-58
2023/04/24 05:57:19;;;;;;;16.17;11.80;;;;;;;;;;762519;183;921521;-59
2023/04/24 05:59:45;;;;;;;12.40;10.23;;;;;;;;;;758831;182;1018168;-59
2023/04/24 06:02:11;;;;;;;14.90;11.63;;;;;;;;;;770124;182;923895;-59
2023/04/24 06:04:37;;;;;;;12.57;10.63;;;;;;;;;;761400;182;921982;-60
2023/04/24 06:07:03;;;;;;;9.40;8.50;;;;;;;;;;755310;182;914186;-60
2023/04/24 06:09:29;;;;;;;11.30;9.03;;;;;;;;;;754630;184;826851;-59
2023/04/24 06:11:56;;;;;;;10.50;9.00;;;;;;;;;;759810;183;919695;-60
2023/04/24 06:14:21;;;;;;;11.47;8.77;;;;;;;;;;749760;185;913879;-59
2023/04/24 06:16:46;;;;;;;22.17;10.40;;;;;;;;;;758991;182;915355;-60
2023/04/24 06:19:12;;;;;;;11.10;9.50;;;;;;;;;;768414;182;850721;-60
2023/04/24 06:21:38;;;;;;;10.10;8.23;;;;;;;;;;765215;180;918846;-59
2023/04/24 06:24:04;;;;;;;10.17;6.60;;;;;;;;;;756015;182;951173;-59
2023/04/24 06:26:30;;;;;;;10.13;6.50;;;;;;;;;;758014;182;813160;-59
2023/04/24 06:28:56;;;;;;;8.63;7.57;;;;;;;;;;764137;180;876834;-59
2023/04/24 06:31:22;;;;;;;10.87;6.80;;;;;;;;;;758234;180;907957;-59
2023/04/24 06:33:47;;;;;;;8.07;7.17;;;;;;;;;;759032;182;924946;-59
2023/04/24 06:36:13;;;;;;;9.73;7.47;;;;;;;;;;762703;182;845515;-59
2023/04/24 06:38:39;;;;;;;9.48;6.80;;;;;;;;;;761837;184;916504;-58
2023/04/24 06:41:05;;;;;;;10.50;7.70;;;;;;;;;;764414;182;844396;-59
2023/04/24 06:43:31;;;;;;;15.70;8.23;;;;;;;;;;769523;181;924396;-60
2023/04/24 06:45:56;;;;;;;13.40;7.80;;;;;;;;;;764999;179;946941;-60
2023/04/24 06:48:22;;;;;;;10.83;7.83;;;;;;;;;;769953;181;918364;-59
2023/04/24 06:50:48;;;;;;;12.03;8.80;;;;;;;;;;773700;181;918217;-59
2023/04/24 06:53:14;;;;;;;13.47;9.70;;;;;;;;;;759791;182;916366;-60
2023/04/24 06:55:40;;;;;;;12.93;7.70;;;;;;;;;;756412;184;918673;-60
2023/04/24 06:58:06;;;;;;;11.70;7.90;;;;;;;;;;767340;182;862635;-60
2023/04/24 07:00:31;;;;;;;11.80;8.67;;;;;;;;;;750287;184;919416;-59
2023/04/24 07:02:57;;;;;;;9.47;7.70;;;;;;;;;;764957;182;918049;-60
2023/04/24 07:05:23;;;;;;;13.02;9.15;;;;;;;;;;768813;182;816169;-61
2023/04/24 07:07:50;;;;;;;11.43;7.70;;;;;;;;;;769627;181;919303;-60
2023/04/24 07:10:15;;;;;;;8.90;7.90;;;;;;;;;;766621;182;920878;-60
2023/04/24 07:12:41;;;;;;;10.93;8.82;;;;;;;;;;766587;182;928033;-61
2023/04/24 07:15:08;;;;;;;11.77;8.97;;;;;;;;;;771778;182;919019;-61
2023/04/24 07:17:33;;;;;;;15.70;9.50;;;;;;;;;;762989;182;918015;-60
2023/04/24 07:19:59;;;;;;;15.07;11.03;;;;;;;;;;768780;181;918766;-61
2023/04/24 07:22:25;;;;;;;14.10;9.70;;;;;;;;;;771364;182;917558;-60
2023/04/24 07:24:50;;;;;;;11.53;8.57;;;;;;;;;;767446;181;918012;-61
2023/04/24 07:27:16;;;;;;;12.00;9.73;;;;;;;;;;766436;181;920332;-60
2023/04/24 07:29:42;;;;;;;11.57;9.30;;;;;;;;;;766904;182;927538;-61
2023/04/24 07:32:09;;;;;;;10.70;8.57;;;;;;;;;;755235;184;912959;-61
2023/04/24 07:34:34;;;;;;;13.80;11.47;;;;;;;;;;762343;180;921748;-61
2023/04/24 07:37:00;;;;;;;13.77;10.20;;;;;;;;;;762367;182;912798;-61
2023/04/24 07:39:26;;;;;;;10.40;8.13;;;;;;;;;;768824;182;907021;-61
2023/04/24 07:41:51;;;;;;;10.47;8.50;;;;;;;;;;764519;181;918886;-61
2023/04/24 07:44:17;;;;;;;11.07;8.50;;;;;;;;;;766603;181;940183;-61
2023/04/24 07:46:43;;;;;;;9.13;8.00;;;;;;;;;;770788;182;921072;-61
2023/04/24 07:49:09;;;;;;;13.70;7.80;;;;;;;;;;767805;182;925936;-61
2023/04/24 07:51:38;;;;;;;10.30;7.70;;;;;;;;;;764143;181;918131;-61
2023/04/24 07:54:02;;;;;;;8.87;6.50;;;;;;;;;;768424;182;818360;-61
2023/04/24 07:56:30;;;;;;;8.87;7.23;;;;;;;;;;765624;181;821895;-61
2023/04/24 07:58:53;;;;;;;8.40;7.57;;;;;;;;;;763952;182;922094;-63
2023/04/24 08:01:19;;;;;;;10.50;7.60;;;;;;;;;;763279;182;814652;-61
2023/04/24 08:03:45;;;;;;;8.30;6.53;;;;;;;;;;760718;182;919077;-61
2023/04/24 08:06:11;;;;;;;8.07;6.30;;;;;;;;;;750454;183;911345;-62
2023/04/24 08:08:37;;;;;;;8.77;7.80;;;;;;;;;;765941;180;917272;-62
2023/04/24 08:11:03;;;;;;;9.20;6.60;;;;;;;;;;769161;182;883877;-62
2023/04/24 08:13:29;;;;;;;8.03;6.83;;;;;;;;;;752845;184;917961;-62
2023/04/24 08:15:55;;;;;;;9.10;7.00;;;;;;;;;;766336;182;918112;-61
2023/04/24 08:18:20;;;;;;;11.73;6.77;;;;;;;;;;765611;183;923395;-62
2023/04/24 08:20:46;;;;;;;7.53;6.23;;;;;;;;;;753610;184;922591;-62
2023/04/24 08:23:12;;;;;;;11.60;7.30;;;;;;;;;;758830;182;921632;-62
2023/04/24 08:25:38;;;;;;;9.47;6.63;;;;;;;;;;759177;182;889486;-62
2023/04/24 08:28:04;;;;;;;9.03;6.10;;;;;;;;;;769203;182;918375;-61
2023/04/24 08:30:30;;;;;;;10.30;7.60;;;;;;;;;;767157;182;884595;-62
2023/04/24 08:32:56;;;;;;;7.97;6.57;;;;;;;;;;762537;182;918171;-62
2023/04/24 08:35:22;;;;;;;8.23;6.47;;;;;;;;;;766938;183;919410;-62
2023/04/24 08:37:47;;;;;;;7.77;6.30;;;;;;;;;;769171;182;918335;-62
2023/04/24 08:40:14;;;;;;;9.37;6.67;;;;;;;;;;752762;182;920613;-62
2023/04/24 08:42:39;;;;;;;8.03;6.70;;;;;;;;;;762114;182;922454;-61
2023/04/24 08:45:06;;;;;;;11.43;8.13;;;;;;;;;;758347;182;920822;-61
2023/04/24 08:47:31;;;;;;;9.93;6.20;;;;;;;;;;764736;182;919637;-62
2023/04/24 08:49:58;;;;;;;7.80;6.77;;;;;;;;;;764840;182;920009;-62
2023/04/24 08:52:23;;;;;;;10.37;7.57;;;;;;;;;;767229;183;921629;-62
2023/04/24 08:54:49;;;;;;;8.23;5.77;;;;;;;;;;769327;180;920926;-62
2023/04/24 08:57:15;;;;;;;8.37;7.27;;;;;;;;;;763702;182;841945;-62
2023/04/24 08:59:41;;;;;;;12.83;7.17;;;;;;;;;;767441;182;919840;-62
2023/04/24 09:02:06;;;;;;;10.90;6.30;;;;;;;;;;758714;183;922954;-62
2023/04/24 09:04:32;;;;;;;8.20;5.63;;;;;;;;;;760326;182;928624;-62
2023/04/24 09:06:58;;;;;;;7.90;5.80;;;;;;;;;;763910;182;919465;-62
2023/04/24 09:09:24;;;;;;;17.10;6.33;;;;;;;;;;767262;182;830558;-62
2023/04/24 09:11:50;;;;;;;7.43;6.33;;;;;;;;;;763360;182;919062;-61
2023/04/24 09:14:16;;;;;;;9.40;5.90;;;;;;;;;;766017;181;818047;-61
2023/04/24 09:16:42;;;;;;;5.37;4.83;;;;;;;;;;764597;182;910564;-62
2023/04/24 09:19:08;;;;;;;6.97;6.20;;;;;;;;;;767210;181;918708;-61
2023/04/24 09:21:34;;;;;;;7.83;5.57;;;;;;;;;;764453;183;917167;-61
2023/04/24 09:24:00;;;;;;;7.87;5.93;;;;;;;;;;764002;182;916701;-61
2023/04/24 09:26:26;;;;;;;6.20;5.43;;;;;;;;;;758679;182;918526;-61
2023/04/24 09:28:52;;;;;;;11.10;6.60;;;;;;;;;;764260;182;924155;-61
2023/04/24 09:31:18;;;;;;;11.07;5.47;;;;;;;;;;766800;183;919798;-62
2023/04/24 09:33:55;;;;;;;7.90;5.83;;;;;;;;;;756724;183;913231;-61
2023/04/24 09:36:27;;;;;;;7.43;6.37;;;;;;;;;;745325;188;914888;-61
2023/04/24 09:38:53;;;;;;;12.30;6.20;;;;;;;;;;758631;182;917773;-61
2023/04/24 09:41:19;;;;;;;8.98;6.28;;;;;;;;;;754343;184;918482;-62
2023/04/24 09:43:45;;;;;;;11.80;6.80;;;;;;;;;;752298;183;921799;-60
2023/04/24 09:46:11;;;;;;;9.20;6.83;;;;;;;;;;750409;185;917154;-60
2023/04/24 09:48:37;;;;;;;6.72;6.03;;;;;;;;;;755722;182;923990;-59
2023/04/24 09:51:03;;;;;;;8.50;5.47;;;;;;;;;;754471;185;921469;-60
2023/04/24 09:53:28;;;;;;;8.00;5.83;;;;;;;;;;759754;180;819888;-60
2023/04/24 09:55:54;;;;;;;8.43;7.20;;;;;;;;;;750877;185;926738;-59
2023/04/24 09:58:24;;;;;;;10.00;6.90;;;;;;;;;;766266;182;918553;-59
2023/04/24 10:00:50;;;;;;;8.67;6.07;;;;;;;;;;769171;182;816679;-59
2023/04/24 10:03:16;;;;;;;8.00;6.65;;;;;;;;;;764187;181;915516;-59
2023/04/24 10:05:43;;;;;;;9.60;7.67;;;;;;;;;;765311;181;919261;-59
2023/04/24 10:08:07;;;;;;;7.50;6.23;;;;;;;;;;757517;182;816854;-59
2023/04/24 10:10:33;;;;;;;7.90;6.20;;;;;;;;;;748425;183;919651;-59
2023/04/24 10:12:59;;;;;;;7.50;6.33;;;;;;;;;;760892;182;919601;-60
2023/04/24 10:15:25;;;;;;;10.50;6.40;;;;;;;;;;762968;183;917541;-59
2023/04/24 10:17:52;;;;;;;10.80;6.40;;;;;;;;;;753945;181;928730;-59
2023/04/24 10:20:18;;;;;;;7.53;6.37;;;;;;;;;;749476;184;919490;-60
2023/04/24 10:22:45;;;;;;;10.60;6.43;;;;;;;;;;770744;182;921152;-59
2023/04/24 10:25:10;;;;;;;11.77;6.80;;;;;;;;;;761971;182;919588;-59
2023/04/24 10:27:36;;;;;;;10.27;6.80;;;;;;;;;;751853;184;919488;-59
2023/04/24 10:30:02;;;;;;;6.97;6.27;;;;;;;;;;750686;186;919469;-59
2023/04/24 10:32:28;;;;;;;9.13;6.90;;;;;;;;;;760249;182;899949;-59
2023/04/24 10:34:54;;;;;;;8.40;6.90;;;;;;;;;;766420;182;917058;-60
2023/04/24 10:37:19;;;;;;;9.25;7.18;;;;;;;;;;765342;181;919939;-60
2023/04/24 10:39:45;;;;;;;7.00;6.27;;;;;;;;;;775196;181;919926;-59
2023/04/24 10:42:15;;;;;;;8.30;6.50;;;;;;;;;;766603;181;919378;-59
2023/04/24 10:44:41;;;;;;;8.50;6.47;;;;;;;;;;764887;181;935915;-59
2023/04/24 10:47:07;;;;;;;7.73;6.50;;;;;;;;;;769116;182;920835;-60
2023/04/24 10:49:33;;;;;;;8.90;5.40;;;;;;;;;;765003;182;915742;-59
2023/04/24 10:52:00;;;;;;;6.83;5.97;;;;;;;;;;763111;181;919611;-59
2023/04/24 10:54:26;;;;;;;7.72;5.65;;;;;;;;;;761697;183;914586;-59
2023/04/24 10:56:51;;;;;;;9.57;6.40;;;;;;;;;;766530;182;898807;-60
2023/04/24 10:59:24;;;;;;;14.07;6.00;;;;;;;;;;752735;184;851756;-60
2023/04/24 11:01:55;;;;;;;8.40;6.60;;;;;;;;;;750921;184;916099;-59
2023/04/24 11:04:20;;;;;;;7.80;6.80;;;;;;;;;;758285;182;918184;-61
2023/04/24 11:06:45;;;;;;;8.60;7.70;;;;;;;;;;766721;182;885147;-60
2023/04/24 11:09:12;;;;;;;10.83;7.70;;;;;;;;;;768388;182;917313;-62
2023/04/24 11:11:39;;;;;;;13.67;7.97;;;;;;;;;;766496;179;895513;-60
2023/04/24 11:14:04;;;;;;;11.38;8.88;;;;;;;;;;757416;183;920732;-61
2023/04/24 11:16:29;;;;;;;9.47;8.53;;;;;;;;;;762392;182;912331;-61
2023/04/24 11:19:00;;;;;;;13.03;7.87;;;;;;;;;;760878;182;918925;-61
2023/04/24 11:21:26;;;;;;;9.10;7.40;;;;;;;;;;761833;182;935877;-61
2023/04/24 11:23:51;;;;;;;9.30;7.47;;;;;;;;;;771161;182;919107;-60
2023/04/24 11:26:18;;;;;;;9.80;7.10;;;;;;;;;;762365;182;918619;-62
2023/04/24 11:28:44;;;;;;;12.23;8.70;;;;;;;;;;757859;182;919664;-61
2023/04/24 11:31:16;;;;;;;10.30;7.67;;;;;;;;;;759526;183;917558;-61
2023/04/24 11:33:41;;;;;;;11.20;7.73;;;;;;;;;;761861;181;921000;-61
2023/04/24 11:36:07;;;;;;;9.13;8.00;;;;;;;;;;755271;183;920569;-61
2023/04/24 11:38:33;;;;;;;9.10;7.53;;;;;;;;;;765824;183;637975;-62
2023/04/24 11:40:59;;;;;;;12.03;8.03;;;;;;;;;;771280;183;613752;-63
2023/04/24 11:43:25;;;;;;;9.57;8.00;;;;;;;;;;767067;182;829862;-61
2023/04/24 11:45:51;;;;;;;10.27;7.53;;;;;;;;;;763491;181;928374;-60
2023/04/24 11:48:18;;;;;;;10.73;8.07;;;;;;;;;;770431;182;858340;-60
2023/04/24 11:50:44;;;;;;;14.10;7.73;;;;;;;;;;769321;181;919330;-61
2023/04/24 11:53:10;;;;;;;9.90;8.00;;;;;;;;;;761500;180;942899;-61
2023/04/24 11:55:36;;;;;;;9.97;8.40;;;;;;;;;;759603;184;817191;-62
2023/04/24 11:58:02;;;;;;;12.13;9.03;;;;;;;;;;741771;185;918647;-61
2023/04/24 12:00:28;;;;;;;11.20;8.47;;;;;;;;;;752168;185;959678;-61
2023/04/24 12:02:53;;;;;;;15.27;9.57;;;;;;;;;;748819;187;918912;-60
2023/04/24 12:05:19;;;;;;;13.60;9.50;;;;;;;;;;762129;182;919014;-61
2023/04/24 12:07:45;;;;;;;10.00;8.57;;;;;;;;;;762820;182;918957;-62
2023/04/24 12:10:11;;;;;;;8.90;8.00;;;;;;;;;;765956;182;919875;-61
2023/04/24 12:12:37;;;;;;;11.20;9.17;;;;;;;;;;771052;182;919551;-61
2023/04/24 12:15:03;;;;;;;14.70;10.90;;;;;;;;;;761755;183;919069;-61
2023/04/24 12:17:30;;;;;;;12.73;9.77;;;;;;;;;;764045;182;919411;-61
2023/04/24 12:19:57;;;;;;;12.80;9.55;;;;;;;;;;770576;180;915147;-61
2023/04/24 12:22:23;;;;;;;18.23;10.90;;;;;;;;;;766931;180;920785;-61
2023/04/24 12:24:54;;;;;;;16.40;10.40;;;;;;;;;;758892;179;918906;-61
2023/04/24 12:27:20;;;;;;;14.73;10.93;;;;;;;;;;749663;184;921146;-60
2023/04/24 12:29:52;;;;;;;11.23;9.50;;;;;;;;;;758643;183;921908;-60
2023/04/24 12:32:18;;;;;;;12.50;10.73;;;;;;;;;;768725;181;911569;-61
2023/04/24 12:34:43;;;;;;;16.70;11.00;;;;;;;;;;768274;182;918236;-61
2023/04/24 12:37:09;;;;;;;12.17;9.70;;;;;;;;;;768076;182;852005;-61
2023/04/24 12:39:35;;;;;;;14.60;10.50;;;;;;;;;;773253;182;797335;-61
2023/04/24 12:42:01;;;;;;;14.00;10.63;;;;;;;;;;761741;183;918355;-62
2023/04/24 12:44:29;;;;;;;12.90;9.20;;;;;;;;;;755423;183;919346;-62
2023/04/24 12:46:54;;;;;;;16.13;11.77;;;;;;;;;;771420;183;918439;-61
2023/04/24 12:49:20;;;;;;;14.77;9.67;;;;;;;;;;766237;183;913785;-61
2023/04/24 12:51:46;;;;;;;12.23;9.37;;;;;;;;;;766797;182;914553;-60
2023/04/24 12:54:12;;;;;;;10.27;8.83;;;;;;;;;;768933;183;916794;-62
2023/04/24 12:56:39;;;;;;;11.83;9.17;;;;;;;;;;762374;183;919954;-61
2023/04/24 12:59:04;;;;;;;11.73;9.63;;;;;;;;;;765410;179;914873;-61
2023/04/24 13:01:29;;;;;;;15.93;9.77;;;;;;;;;;763079;182;922497;-61
2023/04/24 13:03:55;;;;;;;11.47;9.53;;;;;;;;;;757964;182;918197;-61
2023/04/24 13:06:21;;;;;;;12.50;8.83;;;;;;;;;;762809;182;919304;-62
2023/04/24 13:08:48;;;;;;;10.80;9.50;;;;;;;;;;765083;181;924549;-60
2023/04/24 13:11:13;;;;;;;9.87;8.87;;;;;;;;;;767556;182;921137;-61
2023/04/24 13:13:39;;;;;;;13.50;10.10;;;;;;;;;;761747;182;919042;-61
2023/04/24 13:16:05;;;;;;;17.97;10.07;;;;;;;;;;756336;182;919555;-62
2023/04/24 13:18:31;;;;;;;12.57;9.77;;;;;;;;;;769048;182;910643;-61
2023/04/24 13:20:56;;;;;;;18.50;10.30;;;;;;;;;;766412;181;919429;-60
2023/04/24 13:23:22;;;;;;;13.13;11.10;;;;;;;;;;765820;181;915662;-61
2023/04/24 13:25:48;;;;;;;13.63;9.50;;;;;;;;;;767625;182;864661;-61
2023/04/24 13:28:14;;;;;;;12.77;9.43;;;;;;;;;;768986;182;919097;-61
2023/04/24 13:30:40;;;;;;;16.13;11.20;;;;;;;;;;764977;181;919170;-61
2023/04/24 13:33:06;;;;;;;14.97;11.23;;;;;;;;;;763101;180;919563;-61
2023/04/24 13:35:31;;;;;;;12.07;9.73;;;;;;;;;;758479;185;815980;-61
2023/04/24 13:37:57;;;;;;;12.10;10.17;;;;;;;;;;762586;182;921468;-61
2023/04/24 13:40:23;;;;;;;14.80;11.77;;;;;;;;;;760547;182;918772;-62
2023/04/24 13:42:49;;;;;;;17.90;11.83;;;;;;;;;;769986;181;916901;-61
2023/04/24 13:45:15;;;;;;;16.43;12.83;;;;;;;;;;762487;181;908572;-61
2023/04/24 13:47:41;;;;;;;13.00;11.00;;;;;;;;;;760479;182;941436;-61
2023/04/24 13:50:08;;;;;;;12.23;10.87;;;;;;;;;;762329;182;816156;-61
2023/04/24 13:52:33;;;;;;;13.90;12.20;;;;;;;;;;760950;182;919595;-61
2023/04/24 13:54:59;;;;;;;17.00;13.00;;;;;;;;;;765082;182;817752;-61
2023/04/24 13:57:25;;;;;;;14.80;11.90;;;;;;;;;;759761;182;922588;-60
2023/04/24 13:59:51;;;;;;;17.30;12.27;;;;;;;;;;767883;182;920032;-61
2023/04/24 14:02:16;;;;;;;13.87;12.20;;;;;;;;;;762734;182;919331;-61
2023/04/24 14:04:42;;;;;;;13.33;11.33;;;;;;;;;;761376;182;882686;-61
2023/04/24 14:07:08;;;;;;;16.83;12.83;;;;;;;;;;769055;182;818583;-61
2023/04/24 14:09:34;;;;;;;12.73;11.03;;;;;;;;;;761239;182;918939;-61
2023/04/24 14:12:01;;;;;;;13.53;12.03;;;;;;;;;;765104;182;861297;-60
2023/04/24 14:14:26;;;;;;;19.90;12.80;;;;;;;;;;765334;182;918003;-61